createdAt,value
2022-09-17T00:00:54.478Z,0.00
2022-09-17T00:01:54.558Z,0.00
2022-09-17T00:02:54.487Z,0.00
2022-09-17T00:03:54.447Z,0.00
2022-09-17T00:04:54.426Z,0.00
2022-09-17T00:05:54.417Z,0.00
2022-09-17T00:06:54.414Z,0.00
2022-09-17T00:07:54.409Z,0.00
2022-09-17T00:08:54.430Z,0.00
2022-09-17T00:09:54.380Z,0.00
2022-09-17T00:10:54.355Z,0.00
2022-09-17T00:11:54.371Z,0.00
2022-09-17T00:12:54.337Z,0.00
2022-09-17T00:13:54.396Z,0.00
2022-09-17T00:14:54.334Z,0.00
2022-09-17T00:15:54.353Z,0.00
2022-09-17T00:16:54.292Z,0.00
2022-09-17T00:17:54.290Z,0.00
2022-09-17T00:18:54.266Z,0.00
2022-09-17T00:19:54.277Z,0.00
2022-09-17T00:20:54.274Z,0.00
2022-09-17T00:21:54.243Z,0.00
2022-09-17T00:22:54.254Z,0.00
2022-09-17T00:23:54.209Z,0.00
2022-09-17T00:24:54.204Z,0.00
2022-09-17T00:25:54.204Z,0.00
2022-09-17T00:26:54.183Z,0.00
2022-09-17T00:27:54.163Z,0.00
2022-09-17T00:28:54.190Z,0.00
2022-09-17T00:29:54.141Z,0.00
2022-09-17T00:30:54.251Z,0.00
2022-09-17T00:31:54.125Z,0.00
2022-09-17T00:32:54.129Z,0.00
2022-09-17T00:33:54.104Z,0.00
2022-09-17T00:34:54.109Z,0.00
2022-09-17T00:35:54.095Z,0.00
2022-09-17T00:36:54.147Z,0.00
2022-09-17T00:37:54.066Z,0.00
2022-09-17T00:38:54.045Z,0.00
2022-09-17T00:39:54.078Z,0.00
2022-09-17T00:40:54.021Z,0.00
2022-09-17T00:41:54.033Z,0.00
2022-09-17T00:42:54.000Z,0.00
2022-09-17T00:43:53.986Z,0.00
2022-09-17T00:44:53.959Z,0.00
2022-09-17T00:45:53.980Z,0.00
2022-09-17T00:46:53.999Z,0.00
2022-09-17T00:47:53.969Z,0.00
2022-09-17T00:48:53.932Z,0.00
2022-09-17T00:49:53.919Z,0.00
2022-09-17T00:50:53.939Z,0.00
2022-09-17T00:51:58.299Z,0.00
2022-09-17T00:52:54.906Z,0.00
2022-09-17T00:53:53.978Z,0.00
2022-09-17T00:54:53.859Z,0.00
2022-09-17T00:55:53.856Z,0.00
2022-09-17T00:56:53.875Z,0.00
2022-09-17T00:57:53.830Z,0.00
2022-09-17T00:58:53.818Z,0.00
2022-09-17T00:59:53.819Z,0.00
2022-09-17T01:00:53.910Z,0.00
2022-09-17T01:01:53.835Z,0.00
2022-09-17T01:02:53.767Z,0.00
2022-09-17T01:03:53.764Z,0.00
2022-09-17T01:04:53.737Z,0.00
2022-09-17T01:05:53.734Z,0.00
2022-09-17T01:06:53.729Z,0.00
2022-09-17T01:07:53.716Z,0.00
2022-09-17T01:08:53.736Z,0.00
2022-09-17T01:09:53.685Z,0.00
2022-09-17T01:10:53.676Z,0.00
2022-09-17T01:11:53.696Z,0.00
2022-09-17T01:12:53.656Z,0.00
2022-09-17T01:13:53.654Z,0.00
2022-09-17T01:14:53.640Z,0.00
2022-09-17T01:15:53.657Z,0.00
2022-09-17T01:16:53.614Z,0.00
2022-09-17T01:17:53.598Z,0.00
2022-09-17T01:18:53.593Z,0.00
2022-09-17T01:19:53.592Z,0.00
2022-09-17T01:20:53.563Z,0.00
2022-09-17T01:21:53.563Z,0.00
2022-09-17T01:22:53.551Z,0.00
2022-09-17T01:23:53.569Z,0.00
2022-09-17T01:24:53.522Z,0.00
2022-09-17T01:25:53.558Z,0.00
2022-09-17T01:26:53.496Z,0.00
2022-09-17T01:27:53.482Z,0.00
2022-09-17T01:28:53.503Z,0.00
2022-09-17T01:29:53.485Z,0.00
2022-09-17T01:30:53.454Z,0.00
2022-09-17T01:31:53.518Z,0.00
2022-09-17T01:32:53.421Z,0.00
2022-09-17T01:33:53.431Z,0.00
2022-09-17T01:34:53.393Z,0.00
2022-09-17T01:35:53.403Z,0.00
2022-09-17T01:36:53.383Z,0.00
2022-09-17T01:37:53.384Z,0.00
2022-09-17T01:38:53.351Z,0.00
2022-09-17T01:39:53.382Z,0.00
2022-09-17T01:40:53.333Z,0.00
2022-09-17T01:41:53.344Z,0.00
2022-09-17T01:42:53.310Z,0.00
2022-09-17T01:43:53.300Z,0.00
2022-09-17T01:44:53.310Z,0.00
2022-09-17T01:45:53.270Z,0.00
2022-09-17T01:46:53.353Z,0.00
2022-09-17T01:47:53.266Z,0.00
2022-09-17T01:48:53.247Z,0.00
2022-09-17T01:49:53.228Z,0.00
2022-09-17T01:50:53.233Z,0.00
2022-09-17T01:51:53.215Z,0.00
2022-09-17T01:52:53.220Z,0.00
2022-09-17T01:53:53.436Z,0.00
2022-09-17T01:54:53.180Z,0.00
2022-09-17T01:55:53.182Z,0.00
2022-09-17T01:56:53.153Z,0.00
2022-09-17T01:57:53.195Z,0.00
2022-09-17T01:58:53.127Z,0.00
2022-09-17T01:59:53.120Z,0.00
2022-09-17T02:00:53.196Z,0.00
2022-09-17T02:01:53.135Z,0.00
2022-09-17T02:02:53.076Z,0.00
2022-09-17T02:03:53.077Z,0.00
2022-09-17T02:04:53.070Z,0.00
2022-09-17T02:05:53.050Z,0.00
2022-09-17T02:06:53.082Z,0.00
2022-09-17T02:07:53.037Z,0.00
2022-09-17T02:08:53.019Z,0.00
2022-09-17T02:09:53.007Z,0.00
2022-09-17T02:10:52.986Z,0.00
2022-09-17T02:11:53.015Z,0.00
2022-09-17T02:12:52.965Z,0.00
2022-09-17T02:13:52.964Z,0.00
2022-09-17T02:14:52.966Z,0.00
2022-09-17T02:15:52.995Z,0.00
2022-09-17T02:16:52.924Z,0.00
2022-09-17T02:17:52.904Z,0.00
2022-09-17T02:18:52.919Z,0.00
2022-09-17T02:19:52.905Z,0.00
2022-09-17T02:20:52.876Z,0.00
2022-09-17T02:21:52.884Z,0.00
2022-09-17T02:22:52.845Z,0.00
2022-09-17T02:23:52.859Z,0.00
2022-09-17T02:24:52.841Z,0.00
2022-09-17T02:25:52.824Z,0.00
2022-09-17T02:26:52.805Z,0.00
2022-09-17T02:27:52.800Z,0.00
2022-09-17T02:28:52.782Z,0.00
2022-09-17T02:29:52.790Z,0.00
2022-09-17T02:30:52.763Z,0.00
2022-09-17T02:31:52.810Z,0.00
2022-09-17T02:32:52.733Z,0.00
2022-09-17T02:33:52.894Z,0.00
2022-09-17T02:34:52.713Z,0.00
2022-09-17T02:35:52.750Z,0.00
2022-09-17T02:36:52.704Z,0.00
2022-09-17T02:37:52.681Z,0.00
2022-09-17T02:38:52.661Z,0.00
2022-09-17T02:39:52.695Z,0.00
2022-09-17T02:40:52.651Z,0.00
2022-09-17T02:41:52.680Z,0.00
2022-09-17T02:42:52.622Z,0.00
2022-09-17T02:43:52.622Z,0.00
2022-09-17T02:44:52.600Z,0.00
2022-09-17T02:45:52.602Z,0.00
2022-09-17T02:46:52.658Z,0.00
2022-09-17T02:47:52.576Z,0.00
2022-09-17T02:48:52.559Z,0.00
2022-09-17T02:49:52.569Z,0.00
2022-09-17T02:50:52.544Z,0.00
2022-09-17T02:51:52.538Z,0.00
2022-09-17T02:52:52.527Z,0.00
2022-09-17T02:53:52.508Z,0.00
2022-09-17T02:54:52.487Z,0.00
2022-09-17T02:55:52.478Z,0.00
2022-09-17T02:56:52.471Z,0.00
2022-09-17T02:57:52.488Z,0.00
2022-09-17T02:58:52.451Z,0.00
2022-09-17T02:59:52.428Z,0.00
2022-09-17T03:00:52.491Z,0.00
2022-09-17T03:01:52.508Z,0.00
2022-09-17T03:02:52.409Z,0.00
2022-09-17T03:03:52.406Z,0.00
2022-09-17T03:04:52.388Z,0.00
2022-09-17T03:05:52.372Z,0.00
2022-09-17T03:06:52.351Z,0.00
2022-09-17T03:07:52.364Z,0.00
2022-09-17T03:08:52.326Z,0.00
2022-09-17T03:09:52.316Z,0.00
2022-09-17T03:10:52.305Z,0.00
2022-09-17T03:11:52.317Z,0.00
2022-09-17T03:12:52.305Z,0.00
2022-09-17T03:13:52.275Z,0.00
2022-09-17T03:14:52.283Z,0.00
2022-09-17T03:15:52.269Z,0.00
2022-09-17T03:16:52.235Z,0.00
2022-09-17T03:17:53.478Z,0.00
2022-09-17T03:18:52.244Z,0.00
2022-09-17T03:19:52.229Z,0.00
2022-09-17T03:20:52.194Z,0.00
2022-09-17T03:21:52.182Z,0.00
2022-09-17T03:22:52.164Z,0.00
2022-09-17T03:23:52.196Z,0.00
2022-09-17T03:24:52.147Z,0.00
2022-09-17T03:25:52.146Z,0.00
2022-09-17T03:26:52.121Z,0.00
2022-09-17T03:27:52.113Z,0.00
2022-09-17T03:28:52.122Z,0.00
2022-09-17T03:29:52.119Z,0.00
2022-09-17T03:30:52.083Z,0.00
2022-09-17T03:31:52.071Z,0.00
2022-09-17T03:32:52.056Z,0.00
2022-09-17T03:33:52.071Z,0.00
2022-09-17T03:34:52.031Z,0.00
2022-09-17T03:35:52.041Z,0.00
2022-09-17T03:36:52.016Z,0.00
2022-09-17T03:37:52.004Z,0.00
2022-09-17T03:38:52.014Z,0.00
2022-09-17T03:39:52.058Z,0.00
2022-09-17T03:40:51.960Z,0.00
2022-09-17T03:41:51.980Z,0.00
2022-09-17T03:42:52.001Z,0.00
2022-09-17T03:43:51.939Z,0.00
2022-09-17T03:44:51.934Z,0.00
2022-09-17T03:45:51.911Z,0.00
2022-09-17T03:46:51.957Z,0.00
2022-09-17T03:47:51.898Z,0.00
2022-09-17T03:48:51.871Z,0.00
2022-09-17T03:49:51.878Z,0.00
2022-09-17T03:50:51.848Z,0.00
2022-09-17T03:51:51.849Z,0.00
2022-09-17T03:52:51.839Z,0.00
2022-09-17T03:53:51.818Z,0.00
2022-09-17T03:54:51.878Z,0.00
2022-09-17T03:55:51.828Z,0.00
2022-09-17T03:56:51.781Z,0.00
2022-09-17T03:57:51.798Z,0.00
2022-09-17T03:58:51.773Z,0.00
2022-09-17T03:59:51.751Z,0.00
2022-09-17T04:00:51.747Z,0.00
2022-09-17T04:01:51.818Z,0.00
2022-09-17T04:02:51.772Z,0.00
2022-09-17T04:03:51.700Z,0.00
2022-09-17T04:04:51.696Z,0.00
2022-09-17T04:05:51.686Z,0.00
2022-09-17T04:06:51.665Z,0.00
2022-09-17T04:07:51.669Z,0.00
2022-09-17T04:08:51.652Z,0.00
2022-09-17T04:09:51.635Z,0.00
2022-09-17T04:10:51.664Z,0.00
2022-09-17T04:11:51.615Z,0.00
2022-09-17T04:12:51.602Z,0.00
2022-09-17T04:13:51.584Z,0.00
2022-09-17T04:14:51.644Z,0.00
2022-09-17T04:15:51.659Z,0.00
2022-09-17T04:16:51.582Z,0.00
2022-09-17T04:17:51.546Z,0.00
2022-09-17T04:18:51.532Z,0.00
2022-09-17T04:19:51.524Z,0.00
2022-09-17T04:20:51.511Z,0.00
2022-09-17T04:21:51.502Z,0.00
2022-09-17T04:22:51.503Z,0.00
2022-09-17T04:23:51.482Z,0.00
2022-09-17T04:24:51.465Z,0.00
2022-09-17T04:25:51.453Z,0.00
2022-09-17T04:26:51.432Z,0.00
2022-09-17T04:27:51.432Z,0.00
2022-09-17T04:28:51.441Z,0.00
2022-09-17T04:29:51.410Z,0.00
2022-09-17T04:30:51.445Z,0.00
2022-09-17T04:31:51.393Z,0.00
2022-09-17T04:32:51.401Z,0.00
2022-09-17T04:33:51.378Z,0.00
2022-09-17T04:34:51.349Z,0.00
2022-09-17T04:35:51.359Z,0.00
2022-09-17T04:36:51.322Z,0.00
2022-09-17T04:37:51.325Z,0.00
2022-09-17T04:38:51.398Z,0.00
2022-09-17T04:39:51.322Z,0.00
2022-09-17T04:40:51.277Z,0.00
2022-09-17T04:41:51.299Z,4.00
2022-09-17T04:42:51.260Z,4.00
2022-09-17T04:43:51.248Z,0.00
2022-09-17T04:44:51.291Z,0.00
2022-09-17T04:45:51.218Z,0.00
2022-09-17T04:46:51.297Z,4.00
2022-09-17T04:47:51.209Z,4.00
2022-09-17T04:48:51.215Z,0.00
2022-09-17T04:49:51.180Z,4.00
2022-09-17T04:50:51.199Z,4.00
2022-09-17T04:51:51.155Z,4.00
2022-09-17T04:52:51.218Z,8.00
2022-09-17T04:53:51.149Z,4.00
2022-09-17T04:54:51.126Z,4.00
2022-09-17T04:55:51.106Z,8.00
2022-09-17T04:56:51.095Z,8.00
2022-09-17T04:57:51.135Z,8.00
2022-09-17T04:58:51.087Z,8.00
2022-09-17T04:59:51.084Z,8.00
2022-09-17T05:00:51.090Z,4.00
2022-09-17T05:01:51.083Z,8.00
2022-09-17T05:02:51.039Z,8.00
2022-09-17T05:03:51.025Z,8.00
2022-09-17T05:04:51.017Z,12.00
2022-09-17T05:05:50.997Z,8.00
2022-09-17T05:06:51.015Z,12.00
2022-09-17T05:07:50.965Z,12.00
2022-09-17T05:08:50.965Z,12.00
2022-09-17T05:09:50.975Z,12.00
2022-09-17T05:10:50.938Z,16.00
2022-09-17T05:11:50.932Z,20.00
2022-09-17T05:12:50.923Z,24.00
2022-09-17T05:13:50.903Z,20.00
2022-09-17T05:14:50.904Z,24.00
2022-09-17T05:15:50.925Z,24.00
2022-09-17T05:16:50.872Z,20.00
2022-09-17T05:17:50.885Z,20.00
2022-09-17T05:18:50.851Z,24.00
2022-09-17T05:19:50.832Z,24.00
2022-09-17T05:20:50.832Z,24.00
2022-09-17T05:21:50.864Z,24.00
2022-09-17T05:22:50.831Z,28.00
2022-09-17T05:23:50.793Z,32.00
2022-09-17T05:24:50.796Z,40.00
2022-09-17T05:25:50.769Z,36.00
2022-09-17T05:26:50.771Z,36.00
2022-09-17T05:27:50.760Z,36.00
2022-09-17T05:28:50.750Z,32.00
2022-09-17T05:29:50.730Z,28.00
2022-09-17T05:30:50.816Z,24.00
2022-09-17T05:31:50.700Z,24.00
2022-09-17T05:32:50.709Z,24.00
2022-09-17T05:33:50.690Z,20.00
2022-09-17T05:34:50.670Z,24.00
2022-09-17T05:35:50.659Z,28.00
2022-09-17T05:36:50.683Z,28.00
2022-09-17T05:37:50.661Z,24.00
2022-09-17T05:38:50.628Z,24.00
2022-09-17T05:39:50.636Z,24.00
2022-09-17T05:40:50.619Z,28.00
2022-09-17T05:41:50.592Z,20.00
2022-09-17T05:42:50.597Z,28.00
2022-09-17T05:43:50.569Z,28.00
2022-09-17T05:44:50.559Z,36.00
2022-09-17T05:45:50.618Z,36.00
2022-09-17T05:46:50.640Z,32.00
2022-09-17T05:47:50.519Z,28.00
2022-09-17T05:48:50.526Z,32.00
2022-09-17T05:49:50.497Z,28.00
2022-09-17T05:50:50.488Z,28.00
2022-09-17T05:51:50.474Z,32.00
2022-09-17T05:52:50.466Z,36.00
2022-09-17T05:53:50.527Z,36.00
2022-09-17T05:54:50.456Z,40.00
2022-09-17T05:55:50.432Z,40.00
2022-09-17T05:56:50.417Z,40.00
2022-09-17T05:57:50.412Z,44.00
2022-09-17T05:58:50.491Z,52.00
2022-09-17T05:59:50.396Z,44.00
2022-09-17T06:00:50.372Z,44.00
2022-09-17T06:01:50.391Z,40.00
2022-09-17T06:02:50.418Z,56.00
2022-09-17T06:03:50.365Z,76.00
2022-09-17T06:04:50.345Z,88.00
2022-09-17T06:05:50.376Z,88.00
2022-09-17T06:06:50.307Z,100.00
2022-09-17T06:07:50.285Z,96.00
2022-09-17T06:08:50.298Z,88.00
2022-09-17T06:09:50.273Z,96.00
2022-09-17T06:10:50.264Z,80.00
2022-09-17T06:11:50.250Z,60.00
2022-09-17T06:12:50.237Z,44.00
2022-09-17T06:13:50.229Z,52.00
2022-09-17T06:14:50.220Z,64.00
2022-09-17T06:15:50.235Z,72.00
2022-09-17T06:16:50.202Z,76.00
2022-09-17T06:17:50.182Z,76.00
2022-09-17T06:18:50.174Z,80.00
2022-09-17T06:19:50.171Z,88.00
2022-09-17T06:20:50.156Z,100.00
2022-09-17T06:21:50.141Z,128.00
2022-09-17T06:22:50.116Z,156.00
2022-09-17T06:23:50.110Z,160.00
2022-09-17T06:24:50.130Z,192.00
2022-09-17T06:25:50.150Z,212.00
2022-09-17T06:26:50.092Z,256.00
2022-09-17T06:27:50.089Z,296.00
2022-09-17T06:28:50.135Z,320.00
2022-09-17T06:29:50.061Z,292.00
2022-09-17T06:30:50.055Z,340.00
2022-09-17T06:31:50.079Z,424.00
2022-09-17T06:32:50.011Z,412.00
2022-09-17T06:33:49.991Z,416.00
2022-09-17T06:34:49.989Z,436.00
2022-09-17T06:35:49.987Z,460.00
2022-09-17T06:36:49.958Z,448.00
2022-09-17T06:37:49.959Z,452.00
2022-09-17T06:38:49.936Z,388.00
2022-09-17T06:39:49.967Z,432.00
2022-09-17T06:40:49.916Z,416.00
2022-09-17T06:41:49.909Z,420.00
2022-09-17T06:42:49.887Z,440.00
2022-09-17T06:43:49.902Z,464.00
2022-09-17T06:44:49.867Z,520.00
2022-09-17T06:45:49.869Z,564.00
2022-09-17T06:46:49.924Z,596.00
2022-09-17T06:47:49.837Z,588.00
2022-09-17T06:48:49.878Z,604.00
2022-09-17T06:49:49.827Z,620.00
2022-09-17T06:50:49.826Z,616.00
2022-09-17T06:51:49.789Z,608.00
2022-09-17T06:52:49.779Z,596.00
2022-09-17T06:53:49.766Z,584.00
2022-09-17T06:54:49.765Z,624.00
2022-09-17T06:55:49.773Z,640.00
2022-09-17T06:56:49.731Z,676.00
2022-09-17T06:57:49.718Z,676.00
2022-09-17T06:58:49.724Z,648.00
2022-09-17T06:59:49.709Z,700.00
2022-09-17T07:00:49.755Z,744.00
2022-09-17T07:01:49.754Z,720.00
2022-09-17T07:02:49.689Z,768.00
2022-09-17T07:03:49.665Z,768.00
2022-09-17T07:04:49.643Z,784.00
2022-09-17T07:05:49.628Z,796.00
2022-09-17T07:06:49.644Z,780.00
2022-09-17T07:07:49.632Z,784.00
2022-09-17T07:08:49.592Z,832.00
2022-09-17T07:09:49.584Z,1024.00
2022-09-17T07:10:49.564Z,836.00
2022-09-17T07:11:49.604Z,1028.00
2022-09-17T07:12:50.139Z,1100.00
2022-09-17T07:13:49.550Z,1068.00
2022-09-17T07:14:49.521Z,984.00
2022-09-17T07:15:49.543Z,800.00
2022-09-17T07:16:49.507Z,772.00
2022-09-17T07:17:49.501Z,816.00
2022-09-17T07:18:49.471Z,1084.00
2022-09-17T07:19:49.470Z,1148.00
2022-09-17T07:20:49.494Z,944.00
2022-09-17T07:21:49.459Z,968.00
2022-09-17T07:22:49.461Z,964.00
2022-09-17T07:23:49.431Z,976.00
2022-09-17T07:24:49.404Z,916.00
2022-09-17T07:25:49.405Z,856.00
2022-09-17T07:26:49.400Z,808.00
2022-09-17T07:27:49.399Z,856.00
2022-09-17T07:28:49.371Z,1076.00
2022-09-17T07:29:49.359Z,916.00
2022-09-17T07:30:49.372Z,1040.00
2022-09-17T07:31:49.387Z,872.00
2022-09-17T07:32:49.385Z,812.00
2022-09-17T07:33:49.335Z,780.00
2022-09-17T07:34:49.318Z,804.00
2022-09-17T07:35:49.294Z,780.00
2022-09-17T07:36:49.279Z,876.00
2022-09-17T07:37:49.282Z,1060.00
2022-09-17T07:38:49.339Z,1156.00
2022-09-17T07:39:49.330Z,760.00
2022-09-17T07:40:49.228Z,1096.00
2022-09-17T07:41:49.242Z,1092.00
2022-09-17T07:42:49.206Z,972.00
2022-09-17T07:43:49.222Z,976.00
2022-09-17T07:44:49.197Z,1184.00
2022-09-17T07:45:49.179Z,900.00
2022-09-17T07:46:49.193Z,980.00
2022-09-17T07:47:49.160Z,944.00
2022-09-17T07:48:49.167Z,1120.00
2022-09-17T07:49:49.136Z,1076.00
2022-09-17T07:50:49.117Z,1064.00
2022-09-17T07:51:49.098Z,1008.00
2022-09-17T07:52:49.093Z,736.00
2022-09-17T07:53:49.129Z,740.00
2022-09-17T07:54:49.090Z,976.00
2022-09-17T07:55:49.075Z,1128.00
2022-09-17T07:56:49.063Z,992.00
2022-09-17T07:57:49.035Z,872.00
2022-09-17T07:58:49.034Z,1124.00
2022-09-17T07:59:49.025Z,1024.00
2022-09-17T08:00:49.011Z,1316.00
2022-09-17T08:01:49.051Z,1420.00
2022-09-17T08:02:49.078Z,1208.00
2022-09-17T08:03:48.967Z,1464.00
2022-09-17T08:04:48.985Z,1144.00
2022-09-17T08:05:48.944Z,1388.00
2022-09-17T08:06:48.942Z,888.00
2022-09-17T08:07:48.931Z,768.00
2022-09-17T08:08:48.966Z,832.00
2022-09-17T08:09:48.897Z,752.00
2022-09-17T08:10:48.906Z,736.00
2022-09-17T08:11:56.142Z,896.00
2022-09-17T08:12:49.864Z,940.00
2022-09-17T08:13:48.872Z,1344.00
2022-09-17T08:14:48.833Z,1108.00
2022-09-17T08:15:48.857Z,1208.00
2022-09-17T08:16:48.838Z,1224.00
2022-09-17T08:17:48.844Z,868.00
2022-09-17T08:18:48.809Z,920.00
2022-09-17T08:19:48.781Z,936.00
2022-09-17T08:20:48.791Z,1096.00
2022-09-17T08:21:48.754Z,1292.00
2022-09-17T08:22:50.260Z,1608.00
2022-09-17T08:23:48.743Z,1608.00
2022-09-17T08:24:48.730Z,1620.00
2022-09-17T08:25:48.711Z,1568.00
2022-09-17T08:26:48.721Z,1568.00
2022-09-17T08:27:48.710Z,1300.00
2022-09-17T08:28:48.693Z,784.00
2022-09-17T08:29:48.673Z,728.00
2022-09-17T08:30:48.660Z,712.00
2022-09-17T08:31:48.699Z,760.00
2022-09-17T08:32:48.650Z,800.00
2022-09-17T08:33:57.925Z,848.00
2022-09-17T08:34:48.609Z,800.00
2022-09-17T08:35:48.639Z,744.00
2022-09-17T08:36:48.600Z,764.00
2022-09-17T08:37:48.577Z,920.00
2022-09-17T08:38:48.656Z,920.00
2022-09-17T08:39:48.560Z,1240.00
2022-09-17T08:40:48.544Z,916.00
2022-09-17T08:41:48.536Z,828.00
2022-09-17T08:42:48.518Z,1076.00
2022-09-17T08:43:48.507Z,1132.00
2022-09-17T08:44:50.723Z,1076.00
2022-09-17T08:45:48.486Z,1120.00
2022-09-17T08:46:48.539Z,1160.00
2022-09-17T08:47:48.457Z,1184.00
2022-09-17T08:48:48.446Z,1152.00
2022-09-17T08:49:48.435Z,1236.00
2022-09-17T08:50:48.435Z,1264.00
2022-09-17T08:51:48.426Z,1308.00
2022-09-17T08:52:48.426Z,1184.00
2022-09-17T08:53:48.398Z,1224.00
2022-09-17T08:54:48.389Z,1400.00
2022-09-17T08:55:48.365Z,1440.00
2022-09-17T08:56:48.365Z,1572.00
2022-09-17T08:57:48.375Z,1556.00
2022-09-17T08:58:48.343Z,1328.00
2022-09-17T08:59:48.325Z,1324.00
2022-09-17T09:00:48.317Z,1296.00
2022-09-17T09:01:48.380Z,1392.00
2022-09-17T09:02:48.369Z,1700.00
2022-09-17T09:03:48.293Z,1356.00
2022-09-17T09:04:48.274Z,1568.00
2022-09-17T09:05:48.258Z,1244.00
2022-09-17T09:06:48.251Z,1108.00
2022-09-17T09:07:48.240Z,1612.00
2022-09-17T09:08:48.240Z,1532.00
2022-09-17T09:09:48.212Z,1024.00
2022-09-17T09:10:48.211Z,804.00
2022-09-17T09:11:48.194Z,832.00
2022-09-17T09:12:48.182Z,1028.00
2022-09-17T09:13:48.191Z,1116.00
2022-09-17T09:14:48.162Z,1132.00
2022-09-17T09:15:48.166Z,1252.00
2022-09-17T09:16:48.139Z,1268.00
2022-09-17T09:17:48.123Z,1292.00
2022-09-17T09:18:48.122Z,1324.00
2022-09-17T09:19:48.112Z,1112.00
2022-09-17T09:20:48.091Z,976.00
2022-09-17T09:21:48.080Z,988.00
2022-09-17T09:22:48.070Z,1076.00
2022-09-17T09:23:48.060Z,1156.00
2022-09-17T09:24:48.052Z,1032.00
2022-09-17T09:25:48.042Z,1160.00
2022-09-17T09:26:48.030Z,1328.00
2022-09-17T09:27:48.009Z,1340.00
2022-09-17T09:28:48.000Z,1412.00
2022-09-17T09:29:47.989Z,1276.00
2022-09-17T09:30:47.982Z,1144.00
2022-09-17T09:31:48.026Z,1164.00
2022-09-17T09:32:47.962Z,880.00
2022-09-17T09:33:48.231Z,712.00
2022-09-17T09:34:47.978Z,532.00
2022-09-17T09:35:47.939Z,476.00
2022-09-17T09:36:47.917Z,400.00
2022-09-17T09:37:47.898Z,400.00
2022-09-17T09:38:47.891Z,392.00
2022-09-17T09:39:47.881Z,404.00
2022-09-17T09:40:47.877Z,440.00
2022-09-17T09:41:47.865Z,488.00
2022-09-17T09:42:47.844Z,572.00
2022-09-17T09:44:04.837Z,704.00
2022-09-17T09:44:48.836Z,876.00
2022-09-17T09:45:47.834Z,1028.00
2022-09-17T09:46:47.843Z,1116.00
2022-09-17T09:47:47.779Z,1128.00
2022-09-17T09:48:47.777Z,1072.00
2022-09-17T09:49:47.758Z,980.00
2022-09-17T09:51:05.851Z,968.00
2022-09-17T09:51:48.746Z,892.00
2022-09-17T09:52:47.734Z,788.00
2022-09-17T09:53:47.716Z,768.00
2022-09-17T09:54:47.707Z,736.00
2022-09-17T09:55:47.694Z,668.00
2022-09-17T09:56:47.695Z,576.00
2022-09-17T09:57:47.666Z,520.00
2022-09-17T09:58:47.659Z,460.00
2022-09-17T09:59:47.646Z,460.00
2022-09-17T10:00:47.635Z,484.00
2022-09-17T10:01:47.791Z,536.00
2022-09-17T10:02:47.744Z,764.00
2022-09-17T10:03:47.604Z,1112.00
2022-09-17T10:04:52.746Z,1288.00
2022-09-17T10:05:48.574Z,1364.00
2022-09-17T10:06:47.573Z,1496.00
2022-09-17T10:07:47.563Z,1600.00
2022-09-17T10:08:47.560Z,1564.00
2022-09-17T10:09:47.555Z,1504.00
2022-09-17T10:10:47.532Z,1500.00
2022-09-17T10:11:47.523Z,1552.00
2022-09-17T10:12:47.504Z,1612.00
2022-09-17T10:13:47.486Z,1672.00
2022-09-17T10:14:47.482Z,1716.00
2022-09-17T10:15:47.501Z,1808.00
2022-09-17T10:16:47.479Z,1916.00
2022-09-17T10:17:47.445Z,2044.00
2022-09-17T10:18:47.443Z,2116.00
2022-09-17T10:19:47.420Z,2184.00
2022-09-17T10:20:47.414Z,2116.00
2022-09-17T10:21:47.400Z,2088.00
2022-09-17T10:22:47.391Z,2048.00
2022-09-17T10:23:47.381Z,1976.00
2022-09-17T10:24:47.363Z,1908.00
2022-09-17T10:25:47.363Z,1856.00
2022-09-17T10:26:47.341Z,1792.00
2022-09-17T10:27:47.342Z,1784.00
2022-09-17T10:28:47.320Z,1800.00
2022-09-17T10:29:47.309Z,1772.00
2022-09-17T10:30:47.292Z,1636.00
2022-09-17T10:31:47.414Z,1364.00
2022-09-17T10:32:47.273Z,1192.00
2022-09-17T10:33:47.279Z,972.00
2022-09-17T10:34:47.252Z,780.00
2022-09-17T10:35:47.271Z,668.00
2022-09-17T10:36:47.230Z,524.00
2022-09-17T10:37:47.219Z,396.00
2022-09-17T10:38:47.209Z,320.00
2022-09-17T10:39:47.219Z,280.00
2022-09-17T10:40:47.187Z,288.00
2022-09-17T10:41:47.179Z,384.00
2022-09-17T10:42:47.160Z,476.00
2022-09-17T10:43:47.156Z,536.00
2022-09-17T10:44:47.139Z,564.00
2022-09-17T10:45:47.138Z,524.00
2022-09-17T10:46:47.170Z,508.00
2022-09-17T10:47:47.110Z,536.00
2022-09-17T10:48:47.098Z,620.00
2022-09-17T10:49:47.090Z,744.00
2022-09-17T10:50:47.077Z,800.00
2022-09-17T10:51:47.097Z,828.00
2022-09-17T10:52:47.052Z,816.00
2022-09-17T10:53:47.036Z,724.00
2022-09-17T10:54:47.029Z,668.00
2022-09-17T10:55:47.016Z,676.00
2022-09-17T10:56:47.016Z,724.00
2022-09-17T10:57:46.996Z,696.00
2022-09-17T10:58:46.976Z,808.00
2022-09-17T10:59:46.968Z,880.00
2022-09-17T11:00:46.958Z,980.00
2022-09-17T11:01:47.083Z,1044.00
2022-09-17T11:02:47.041Z,1096.00
2022-09-17T11:03:46.927Z,1116.00
2022-09-17T11:04:46.916Z,1108.00
2022-09-17T11:05:46.916Z,1096.00
2022-09-17T11:06:46.906Z,1160.00
2022-09-17T11:07:46.884Z,1216.00
2022-09-17T11:08:46.931Z,1200.00
2022-09-17T11:09:46.855Z,1204.00
2022-09-17T11:10:46.845Z,1248.00
2022-09-17T11:11:46.854Z,1320.00
2022-09-17T11:12:46.829Z,1380.00
2022-09-17T11:13:46.815Z,1480.00
2022-09-17T11:14:46.804Z,1620.00
2022-09-17T11:15:50.814Z,1636.00
2022-09-17T11:16:47.856Z,1672.00
2022-09-17T11:17:46.774Z,1596.00
2022-09-17T11:18:46.752Z,1532.00
2022-09-17T11:19:46.743Z,1600.00
2022-09-17T11:20:46.735Z,1692.00
2022-09-17T11:21:46.725Z,1652.00
2022-09-17T11:22:46.722Z,1620.00
2022-09-17T11:23:46.746Z,1696.00
2022-09-17T11:24:46.686Z,1928.00
2022-09-17T11:25:46.682Z,2112.00
2022-09-17T11:26:46.663Z,2116.00
2022-09-17T11:27:46.661Z,2088.00
2022-09-17T11:28:46.658Z,2148.00
2022-09-17T11:29:46.631Z,2044.00
2022-09-17T11:30:46.630Z,2040.00
2022-09-17T11:31:46.690Z,2036.00
2022-09-17T11:32:46.623Z,1944.00
2022-09-17T11:33:46.581Z,1908.00
2022-09-17T11:34:46.577Z,2392.00
2022-09-17T11:35:46.567Z,2316.00
2022-09-17T11:36:46.609Z,2108.00
2022-09-17T11:37:46.542Z,2256.00
2022-09-17T11:38:46.642Z,2184.00
2022-09-17T11:39:46.529Z,2308.00
2022-09-17T11:40:46.508Z,1932.00
2022-09-17T11:41:46.490Z,1820.00
2022-09-17T11:42:46.489Z,1488.00
2022-09-17T11:43:46.478Z,1256.00
2022-09-17T11:44:46.459Z,1204.00
2022-09-17T11:45:46.458Z,1084.00
2022-09-17T11:46:46.474Z,1096.00
2022-09-17T11:47:46.426Z,1240.00
2022-09-17T11:48:46.420Z,1188.00
2022-09-17T11:49:46.417Z,1352.00
2022-09-17T11:50:46.398Z,1504.00
2022-09-17T11:51:46.382Z,1556.00
2022-09-17T11:52:46.368Z,1428.00
2022-09-17T11:53:46.419Z,1384.00
2022-09-17T11:54:46.357Z,1328.00
2022-09-17T11:55:46.358Z,1316.00
2022-09-17T11:56:46.333Z,1288.00
2022-09-17T11:57:46.318Z,1300.00
2022-09-17T11:58:46.296Z,1444.00
2022-09-17T11:59:46.287Z,1592.00
2022-09-17T12:00:46.288Z,1640.00
2022-09-17T12:01:46.334Z,1512.00
2022-09-17T12:02:46.356Z,1452.00
2022-09-17T12:03:46.247Z,1400.00
2022-09-17T12:04:46.235Z,1276.00
2022-09-17T12:05:46.225Z,1140.00
2022-09-17T12:06:46.215Z,1052.00
2022-09-17T12:07:46.215Z,884.00
2022-09-17T12:08:46.219Z,824.00
2022-09-17T12:09:46.174Z,952.00
2022-09-17T12:10:46.175Z,1144.00
2022-09-17T12:11:46.154Z,1272.00
2022-09-17T12:12:49.960Z,1320.00
2022-09-17T12:13:46.134Z,1400.00
2022-09-17T12:14:46.141Z,1452.00
2022-09-17T12:15:49.745Z,1316.00
2022-09-17T12:16:47.161Z,1128.00
2022-09-17T12:17:46.083Z,1296.00
2022-09-17T12:18:46.102Z,1316.00
2022-09-17T12:19:46.078Z,1288.00
2022-09-17T12:20:46.054Z,1436.00
2022-09-17T12:21:46.050Z,1572.00
2022-09-17T12:22:46.045Z,1668.00
2022-09-17T12:23:46.024Z,1592.00
2022-09-17T12:24:46.022Z,1424.00
2022-09-17T12:25:46.003Z,1448.00
2022-09-17T12:26:45.995Z,1332.00
2022-09-17T12:27:45.971Z,1196.00
2022-09-17T12:28:45.962Z,1220.00
2022-09-17T12:29:45.981Z,1096.00
2022-09-17T12:30:45.950Z,1024.00
2022-09-17T12:31:46.015Z,1112.00
2022-09-17T12:32:45.933Z,1176.00
2022-09-17T12:33:45.906Z,1052.00
2022-09-17T12:34:45.912Z,1000.00
2022-09-17T12:36:03.482Z,1144.00
2022-09-17T12:36:46.880Z,1120.00
2022-09-17T12:37:45.858Z,1216.00
2022-09-17T12:38:45.850Z,1176.00
2022-09-17T12:39:45.856Z,1216.00
2022-09-17T12:40:45.838Z,1348.00
2022-09-17T12:41:45.818Z,1404.00
2022-09-17T12:42:45.831Z,1236.00
2022-09-17T12:43:45.809Z,1372.00